Time;durP1;ratioP1;P1;durP2;ratioP2;P2;SDS_P1;SDS_P2;PMS_P1;PMS_P2;Temp;Humidity;BMP_temperature;BMP_pressure;BME280_temperature;BME280_humidity;BME280_pressure;Samples;Min_cycle;Max_cycle;Signal;HPM_P1;HPM_P2
2022/01/29 00:02:11;;;;;;;22.45;4.07;;;;;;;;;;5022487;28;20137;-66
2022/01/29 00:04:37;;;;;;;23.77;4.03;;;;;;;;;;5023520;28;20069;-66
2022/01/29 00:07:04;;;;;;;25.43;3.03;;;;;;;;;;5022640;28;20515;-66
2022/01/29 00:09:30;;;;;;;26.63;3.20;;;;;;;;;;5022380;28;20057;-66
2022/01/29 00:11:57;;;;;;;26.00;3.42;;;;;;;;;;5010463;28;20049;-66
2022/01/29 00:14:23;;;;;;;28.33;3.70;;;;;;;;;;5021955;28;20141;-66
2022/01/29 00:16:50;;;;;;;14.35;2.50;;;;;;;;;;5020861;28;20515;-66
2022/01/29 00:19:16;;;;;;;30.48;4.13;;;;;;;;;;5018348;28;20041;-66
2022/01/29 00:21:42;;;;;;;18.23;3.28;;;;;;;;;;5022742;28;20050;-66
2022/01/29 00:24:09;;;;;;;18.15;3.63;;;;;;;;;;5022790;28;20622;-66
2022/01/29 00:26:35;;;;;;;24.48;3.85;;;;;;;;;;5019499;28;20045;-66
2022/01/29 00:29:09;;;;;;;26.00;3.85;;;;;;;;;;5023232;28;20619;-66
2022/01/29 00:31:35;;;;;;;30.30;3.97;;;;;;;;;;5022233;28;20148;-66
2022/01/29 00:34:02;;;;;;;26.05;4.13;;;;;;;;;;5020012;28;20046;-66
2022/01/29 00:36:28;;;;;;;26.10;3.47;;;;;;;;;;5005650;28;20149;-66
2022/01/29 00:38:55;;;;;;;23.23;3.78;;;;;;;;;;5020450;28;20140;-66
2022/01/29 00:41:21;;;;;;;36.00;4.28;;;;;;;;;;5018965;28;20075;-66
2022/01/29 00:43:48;;;;;;;22.52;3.60;;;;;;;;;;5020265;28;20059;-66
2022/01/29 00:46:22;;;;;;;17.85;3.78;;;;;;;;;;5023765;28;20513;-66
2022/01/29 00:48:48;;;;;;;27.60;3.85;;;;;;;;;;5007946;28;20063;-66
2022/01/29 00:51:15;;;;;;;16.23;2.75;;;;;;;;;;5026300;28;20045;-66
2022/01/29 00:53:41;;;;;;;22.45;3.25;;;;;;;;;;5023127;28;20137;-66
2022/01/29 00:56:10;;;;;;;21.13;3.22;;;;;;;;;;5023321;28;20513;-66
2022/01/29 00:58:36;;;;;;;19.85;3.53;;;;;;;;;;5023419;28;20087;-66
2022/01/29 01:01:09;;;;;;;29.33;3.45;;;;;;;;;;5024063;28;20131;-66
2022/01/29 01:03:36;;;;;;;20.40;3.30;;;;;;;;;;5023350;28;20050;-66
2022/01/29 01:06:02;;;;;;;20.15;3.42;;;;;;;;;;5025175;28;20177;-66
2022/01/29 01:08:29;;;;;;;17.27;2.88;;;;;;;;;;5021253;28;20217;-66
2022/01/29 01:10:55;;;;;;;20.00;2.78;;;;;;;;;;5020407;28;20042;-66
2022/01/29 01:13:21;;;;;;;28.85;3.63;;;;;;;;;;5022283;28;20065;-66
2022/01/29 01:15:54;;;;;;;17.55;2.92;;;;;;;;;;5021928;28;20673;-66
2022/01/29 01:18:21;;;;;;;22.60;3.08;;;;;;;;;;5024338;28;20231;-66
2022/01/29 01:20:47;;;;;;;18.13;3.13;;;;;;;;;;5021405;28;20493;-66
2022/01/29 01:23:14;;;;;;;17.92;2.70;;;;;;;;;;5020435;28;20059;-66
2022/01/29 01:25:40;;;;;;;14.32;2.85;;;;;;;;;;5020275;28;20096;-66
2022/01/29 01:28:06;;;;;;;17.25;2.72;;;;;;;;;;5022294;28;20136;-66
2022/01/29 01:30:36;;;;;;;13.50;2.75;;;;;;;;;;5021101;28;20509;-66
2022/01/29 01:33:03;;;;;;;26.45;3.63;;;;;;;;;;5020233;28;20053;-66
2022/01/29 01:35:35;;;;;;;20.10;3.30;;;;;;;;;;5018769;28;20141;-66
2022/01/29 01:40:38;;;;;;;21.75;3.42;;;;;;;;;;5024141;28;20088;-66
2022/01/29 01:43:05;;;;;;;23.90;3.38;;;;;;;;;;5025053;28;20148;-66
2022/01/29 01:45:31;;;;;;;32.10;4.63;;;;;;;;;;5023195;28;20104;-66
2022/01/29 01:47:58;;;;;;;26.52;3.33;;;;;;;;;;5024031;28;20050;-66
2022/01/29 01:50:25;;;;;;;16.02;2.72;;;;;;;;;;5025126;28;20053;-66
2022/01/29 01:52:51;;;;;;;22.25;3.50;;;;;;;;;;5023212;28;20129;-66
2022/01/29 01:55:17;;;;;;;27.52;3.40;;;;;;;;;;5024071;28;20634;-66
2022/01/29 01:57:44;;;;;;;15.52;3.03;;;;;;;;;;5026986;28;20132;-66
2022/01/29 02:00:11;;;;;;;20.80;4.22;;;;;;;;;;5013390;28;20136;-65
2022/01/29 02:02:37;;;;;;;18.90;3.22;;;;;;;;;;5021377;28;20069;-65
2022/01/29 02:05:11;;;;;;;13.57;3.15;;;;;;;;;;5025231;28;20049;-65
2022/01/29 02:07:37;;;;;;;18.80;3.05;;;;;;;;;;5021512;28;20041;-65
2022/01/29 02:10:08;;;;;;;14.75;3.20;;;;;;;;;;5024586;28;20560;-65
2022/01/29 02:12:48;;;;;;;22.48;3.42;;;;;;;;;;5026270;28;20049;-65
2022/01/29 02:15:17;;;;;;;14.63;3.00;;;;;;;;;;5019804;28;20128;-65
2022/01/29 02:17:45;;;;;;;15.25;3.13;;;;;;;;;;5024621;28;20049;-65
2022/01/29 02:20:12;;;;;;;13.52;3.03;;;;;;;;;;5023265;28;20594;-65
2022/01/29 02:22:39;;;;;;;20.60;3.95;;;;;;;;;;5029905;28;20041;-65
2022/01/29 02:25:06;;;;;;;22.88;3.72;;;;;;;;;;5023776;28;20052;-65
2022/01/29 02:27:32;;;;;;;27.02;4.20;;;;;;;;;;5023371;28;20124;-65
2022/01/29 02:29:59;;;;;;;26.42;5.55;;;;;;;;;;5025093;28;20513;-65
2022/01/29 02:32:40;;;;;;;28.98;5.50;;;;;;;;;;5027385;28;20132;-65
2022/01/29 02:35:06;;;;;;;22.58;5.15;;;;;;;;;;5024676;28;20987;-65
2022/01/29 02:37:36;;;;;;;31.10;6.07;;;;;;;;;;5022047;28;20409;-65
2022/01/29 02:40:03;;;;;;;27.48;6.13;;;;;;;;;;5024654;28;20046;-65
2022/01/29 02:42:29;;;;;;;27.70;5.38;;;;;;;;;;5025010;28;20165;-65
2022/01/29 02:44:56;;;;;;;32.20;6.18;;;;;;;;;;5023444;28;20073;-65
2022/01/29 02:47:29;;;;;;;29.30;6.10;;;;;;;;;;5043051;28;20476;-65
2022/01/29 02:49:56;;;;;;;33.30;5.78;;;;;;;;;;5044222;28;20053;-65
2022/01/29 02:52:22;;;;;;;35.93;5.33;;;;;;;;;;5044298;28;20049;-65
2022/01/29 02:54:49;;;;;;;21.85;4.35;;;;;;;;;;5041840;28;20136;-65
2022/01/29 02:57:15;;;;;;;35.38;5.40;;;;;;;;;;5045677;28;20047;-66
2022/01/29 02:59:42;;;;;;;15.27;3.60;;;;;;;;;;5045436;28;20102;-65
2022/01/29 03:02:09;;;;;;;25.90;5.22;;;;;;;;;;5044810;28;20485;-65
2022/01/29 03:04:35;;;;;;;18.80;4.28;;;;;;;;;;5046761;28;20136;-65
2022/01/29 03:07:02;;;;;;;22.95;4.43;;;;;;;;;;5040865;28;20037;-65
2022/01/29 03:09:29;;;;;;;24.30;4.30;;;;;;;;;;5044302;28;20564;-65
2022/01/29 03:11:56;;;;;;;17.80;3.63;;;;;;;;;;5044113;28;20053;-65
2022/01/29 03:14:25;;;;;;;23.73;4.72;;;;;;;;;;5043828;28;20570;-65
2022/01/29 03:16:51;;;;;;;16.90;3.75;;;;;;;;;;5042822;28;20108;-65
2022/01/29 03:19:18;;;;;;;18.27;3.42;;;;;;;;;;5046166;28;20140;-65
2022/01/29 03:21:48;;;;;;;19.65;4.15;;;;;;;;;;5042281;28;20524;-65
2022/01/29 03:24:14;;;;;;;18.00;4.40;;;;;;;;;;5044352;28;20045;-65
2022/01/29 03:26:41;;;;;;;12.55;3.97;;;;;;;;;;5028943;28;20140;-65
2022/01/29 03:29:14;;;;;;;16.10;3.45;;;;;;;;;;5043155;28;20558;-65
2022/01/29 03:31:41;;;;;;;17.15;3.97;;;;;;;;;;5044609;28;20053;-65
2022/01/29 03:34:07;;;;;;;13.07;3.08;;;;;;;;;;5042781;28;20099;-65
2022/01/29 03:36:34;;;;;;;8.98;2.80;;;;;;;;;;5043887;28;20159;-65
2022/01/29 03:39:01;;;;;;;23.05;3.65;;;;;;;;;;5045540;28;20045;-65
2022/01/29 03:41:27;;;;;;;20.20;3.70;;;;;;;;;;5044412;28;20140;-65
2022/01/29 03:43:57;;;;;;;13.85;4.28;;;;;;;;;;5046592;28;20807;-65
2022/01/29 03:46:23;;;;;;;12.48;3.70;;;;;;;;;;5043978;28;20649;-65
2022/01/29 03:48:50;;;;;;;17.63;4.25;;;;;;;;;;5043393;28;20049;-65
2022/01/29 03:51:16;;;;;;;21.40;4.23;;;;;;;;;;5040757;28;20045;-65
2022/01/29 03:53:43;;;;;;;16.38;4.53;;;;;;;;;;5043731;28;20131;-65
2022/01/29 03:56:10;;;;;;;10.80;3.40;;;;;;;;;;5042880;28;20597;-65
2022/01/29 03:58:36;;;;;;;12.65;2.75;;;;;;;;;;5045080;28;20055;-65
2022/01/29 04:01:03;;;;;;;17.02;3.90;;;;;;;;;;5041331;28;20068;-65
2022/01/29 04:03:29;;;;;;;15.40;3.55;;;;;;;;;;5040506;28;20739;-65
2022/01/29 04:05:56;;;;;;;20.52;4.00;;;;;;;;;;5046138;28;20053;-65
2022/01/29 04:08:24;;;;;;;7.03;3.08;;;;;;;;;;5042309;28;20504;-65
2022/01/29 04:10:51;;;;;;;11.75;3.50;;;;;;;;;;5042192;28;20069;-65
2022/01/29 04:13:22;;;;;;;13.93;3.00;;;;;;;;;;5043680;28;20044;-65
2022/01/29 04:15:48;;;;;;;12.93;3.60;;;;;;;;;;5040947;28;20587;-65
2022/01/29 04:18:15;;;;;;;14.82;3.28;;;;;;;;;;5042402;28;20080;-65
2022/01/29 04:20:44;;;;;;;10.10;2.83;;;;;;;;;;5044321;28;20135;-65
2022/01/29 04:23:10;;;;;;;13.40;3.97;;;;;;;;;;5045589;28;20149;-65
2022/01/29 04:25:36;;;;;;;13.60;4.13;;;;;;;;;;5041696;28;20143;-65
2022/01/29 04:28:04;;;;;;;8.57;3.08;;;;;;;;;;5041422;28;20061;-65
2022/01/29 04:30:38;;;;;;;15.27;3.33;;;;;;;;;;5041591;28;20123;-65
2022/01/29 04:35:49;;;;;;;14.38;3.97;;;;;;;;;;5042896;28;20080;-65
2022/01/29 04:38:16;;;;;;;13.45;2.97;;;;;;;;;;5040018;28;20494;-65
2022/01/29 04:40:43;;;;;;;16.23;3.72;;;;;;;;;;5038496;28;20059;-65
2022/01/29 04:43:09;;;;;;;14.65;4.00;;;;;;;;;;5042023;28;20048;-65
2022/01/29 04:45:36;;;;;;;23.07;5.33;;;;;;;;;;5041931;28;20081;-65
2022/01/29 04:48:02;;;;;;;17.05;6.13;;;;;;;;;;5024713;28;20071;-65
2022/01/29 04:50:29;;;;;;;20.38;5.00;;;;;;;;;;5022603;28;20516;-65
2022/01/29 04:52:55;;;;;;;19.90;6.00;;;;;;;;;;5022695;28;20505;-65
2022/01/29 04:55:22;;;;;;;18.80;5.82;;;;;;;;;;5020944;28;20676;-65
2022/01/29 04:57:48;;;;;;;11.80;4.97;;;;;;;;;;5023224;28;20136;-65
2022/01/29 05:00:21;;;;;;;12.20;5.38;;;;;;;;;;5006735;28;20042;-65
2022/01/29 05:02:49;;;;;;;19.08;5.53;;;;;;;;;;5020515;28;20049;-65
2022/01/29 05:05:15;;;;;;;16.60;4.90;;;;;;;;;;5020589;28;20521;-65
2022/01/29 05:07:48;;;;;;;11.73;3.92;;;;;;;;;;5022042;28;20136;-66
2022/01/29 05:10:15;;;;;;;11.73;4.53;;;;;;;;;;5019633;28;20241;-67
2022/01/29 05:15:23;;;;;;;8.75;3.63;;;;;;;;;;5023245;28;20042;-65
2022/01/29 05:28:49;;;;;;;6.55;2.50;;;;;;;;;;5022823;28;20050;-65
2022/01/29 05:31:16;;;;;;;8.45;2.60;;;;;;;;;;5022041;28;20054;-65
2022/01/29 05:33:42;;;;;;;6.30;1.98;;;;;;;;;;5020654;28;20065;-65
2022/01/29 05:36:08;;;;;;;6.00;2.50;;;;;;;;;;5021206;28;20056;-65
2022/01/29 05:38:35;;;;;;;4.93;2.08;;;;;;;;;;5020160;28;20050;-65
2022/01/29 05:41:03;;;;;;;5.35;2.28;;;;;;;;;;5023602;28;20136;-65
2022/01/29 05:43:29;;;;;;;5.00;2.30;;;;;;;;;;5020850;28;20072;-65
2022/01/29 05:45:56;;;;;;;8.43;2.40;;;;;;;;;;5022447;28;20197;-66
2022/01/29 05:48:23;;;;;;;6.05;2.47;;;;;;;;;;5020935;28;20304;-65
2022/01/29 05:50:49;;;;;;;10.63;2.85;;;;;;;;;;5023228;28;20066;-65
2022/01/29 05:53:16;;;;;;;5.70;2.97;;;;;;;;;;5022548;28;20051;-65
2022/01/29 05:55:42;;;;;;;9.45;3.05;;;;;;;;;;5016995;28;20772;-65
2022/01/29 05:58:09;;;;;;;6.93;3.75;;;;;;;;;;5019605;28;20051;-65
2022/01/29 06:00:35;;;;;;;9.85;3.63;;;;;;;;;;5018001;28;20510;-65
2022/01/29 06:03:03;;;;;;;7.65;2.92;;;;;;;;;;5022304;28;20494;-65
2022/01/29 06:05:30;;;;;;;8.15;3.28;;;;;;;;;;5021073;28;20046;-66
2022/01/29 06:07:56;;;;;;;7.38;3.30;;;;;;;;;;5019695;28;20053;-65
2022/01/29 06:10:23;;;;;;;7.85;3.33;;;;;;;;;;5017870;28;20128;-65
2022/01/29 06:13:16;;;;;;;8.00;3.53;;;;;;;;;;5020969;28;20052;-65
2022/01/29 06:15:46;;;;;;;6.72;3.47;;;;;;;;;;5019541;28;20791;-66
2022/01/29 06:18:15;;;;;;;;;;;;;;;;;;5021778;28;20076;-65
2022/01/29 06:20:42;;;;;;;11.57;3.28;;;;;;;;;;5020655;28;19964;-65
2022/01/29 06:23:11;;;;;;;8.13;2.95;;;;;;;;;;5022063;28;20061;-65
2022/01/29 06:25:38;;;;;;;8.15;3.45;;;;;;;;;;5019884;28;20132;-65
2022/01/29 06:28:04;;;;;;;5.32;2.45;;;;;;;;;;5027346;28;20142;-66
2022/01/29 06:30:33;;;;;;;5.15;3.05;;;;;;;;;;5025923;28;20717;-66
2022/01/29 06:33:10;;;;;;;4.00;2.40;;;;;;;;;;5021590;28;20501;-65
2022/01/29 06:35:37;;;;;;;6.80;2.65;;;;;;;;;;5025717;28;20137;-66
2022/01/29 06:38:04;;;;;;;5.90;2.40;;;;;;;;;;5021737;28;20084;-66
2022/01/29 06:40:30;;;;;;;5.40;2.47;;;;;;;;;;5023558;28;20056;-65
2022/01/29 06:42:58;;;;;;;;;;;;;;;;;;5025942;28;20056;-66
2022/01/29 06:45:24;;;;;;;2.60;2.00;;;;;;;;;;5023154;28;20372;-65
2022/01/29 06:47:51;;;;;;;5.72;1.88;;;;;;;;;;5044292;28;20132;-66
2022/01/29 06:50:17;;;;;;;4.85;1.90;;;;;;;;;;5043037;28;20056;-65
2022/01/29 06:52:44;;;;;;;12.75;3.30;;;;;;;;;;5042896;28;20416;-66
2022/01/29 06:55:10;;;;;;;5.50;2.08;;;;;;;;;;5042879;28;20148;-65
2022/01/29 06:57:43;;;;;;;4.78;1.88;;;;;;;;;;5040510;28;20049;-66
2022/01/29 07:00:30;;;;;;;5.65;1.90;;;;;;;;;;5044262;28;20056;-66
2022/01/29 07:02:56;;;;;;;5.07;1.75;;;;;;;;;;5045942;28;20057;-65
2022/01/29 07:05:23;;;;;;;3.30;1.80;;;;;;;;;;5043169;28;20127;-66
2022/01/29 07:07:49;;;;;;;7.43;2.00;;;;;;;;;;5041963;28;20483;-66
2022/01/29 07:10:17;;;;;;;10.68;1.85;;;;;;;;;;5045895;28;20440;-66
2022/01/29 07:12:44;;;;;;;12.70;1.90;;;;;;;;;;5044673;28;20531;-66
2022/01/29 07:15:10;;;;;;;6.80;1.95;;;;;;;;;;5042025;28;20576;-66
2022/01/29 07:17:38;;;;;;;8.33;2.27;;;;;;;;;;5045103;28;20053;-66
2022/01/29 07:20:05;;;;;;;10.40;1.80;;;;;;;;;;5043669;28;20310;-66
2022/01/29 07:22:31;;;;;;;7.00;1.88;;;;;;;;;;5045583;28;20824;-66
2022/01/29 07:25:05;;;;;;;10.38;1.80;;;;;;;;;;5046259;28;20508;-66
2022/01/29 07:27:31;;;;;;;10.98;2.03;;;;;;;;;;5041230;28;20090;-66
2022/01/29 07:29:58;;;;;;;10.05;2.13;;;;;;;;;;5042852;28;20048;-66
2022/01/29 07:32:28;;;;;;;13.40;2.20;;;;;;;;;;5046096;28;20072;-66
2022/01/29 07:34:55;;;;;;;11.10;1.90;;;;;;;;;;5042228;28;20472;-66
2022/01/29 07:37:21;;;;;;;15.70;2.20;;;;;;;;;;5042246;28;20053;-66
2022/01/29 07:39:49;;;;;;;16.73;2.40;;;;;;;;;;5040606;28;20083;-66
2022/01/29 07:42:16;;;;;;;11.50;2.28;;;;;;;;;;5043746;28;20569;-66
2022/01/29 07:44:42;;;;;;;18.92;2.85;;;;;;;;;;5047518;28;20408;-66
2022/01/29 07:47:16;;;;;;;14.82;2.83;;;;;;;;;;5026878;28;20055;-66
2022/01/29 07:49:43;;;;;;;17.03;3.07;;;;;;;;;;5022885;28;20045;-66
2022/01/29 07:52:09;;;;;;;26.05;3.38;;;;;;;;;;5022825;28;20340;-66
2022/01/29 07:54:36;;;;;;;41.67;4.43;;;;;;;;;;5022009;28;20132;-66
2022/01/29 07:57:02;;;;;;;40.80;3.22;;;;;;;;;;5023031;28;20144;-66
2022/01/29 07:59:29;;;;;;;36.17;4.32;;;;;;;;;;5027057;28;20136;-66
2022/01/29 08:01:55;;;;;;;51.97;4.50;;;;;;;;;;5020843;28;20107;-66
2022/01/29 08:04:24;;;;;;;33.22;3.80;;;;;;;;;;5022431;28;20610;-66
2022/01/29 08:06:51;;;;;;;42.33;4.50;;;;;;;;;;5004954;28;20137;-67
2022/01/29 08:09:18;;;;;;;51.15;4.93;;;;;;;;;;5019060;28;20046;-67
2022/01/29 08:11:45;;;;;;;51.38;4.80;;;;;;;;;;5021960;28;20084;-66
2022/01/29 08:14:11;;;;;;;54.75;5.30;;;;;;;;;;5022639;28;20159;-66
2022/01/29 08:16:38;;;;;;;72.67;4.97;;;;;;;;;;5021533;28;20461;-66
2022/01/29 08:19:04;;;;;;;43.92;5.35;;;;;;;;;;5019041;28;20567;-66
2022/01/29 08:21:30;;;;;;;58.13;5.57;;;;;;;;;;5020017;28;20149;-66
2022/01/29 08:23:57;;;;;;;61.20;6.50;;;;;;;;;;5023844;28;20124;-67
2022/01/29 08:26:24;;;;;;;70.50;6.18;;;;;;;;;;5021701;28;20148;-66
2022/01/29 08:28:50;;;;;;;58.90;5.72;;;;;;;;;;5023790;28;20664;-66
2022/01/29 08:31:16;;;;;;;47.78;6.10;;;;;;;;;;5022933;28;20128;-66
2022/01/29 08:33:43;;;;;;;73.60;6.88;;;;;;;;;;5021654;28;20137;-67
2022/01/29 08:36:09;;;;;;;89.55;7.47;;;;;;;;;;5020700;28;20665;-67
2022/01/29 08:38:36;;;;;;;66.97;7.25;;;;;;;;;;5021242;28;20132;-66
2022/01/29 08:41:03;;;;;;;64.50;7.47;;;;;;;;;;5022697;28;20103;-66
2022/01/29 08:43:29;;;;;;;64.50;7.25;;;;;;;;;;5021518;28;20087;-67
2022/01/29 08:45:59;;;;;;;63.53;6.38;;;;;;;;;;5021437;28;20468;-67
2022/01/29 08:48:26;;;;;;;41.95;5.55;;;;;;;;;;5042270;28;20084;-66
2022/01/29 08:50:52;;;;;;;55.22;6.20;;;;;;;;;;5040237;28;20173;-67
2022/01/29 08:53:19;;;;;;;57.35;5.93;;;;;;;;;;5044797;28;20048;-66
2022/01/29 08:55:45;;;;;;;51.33;5.43;;;;;;;;;;5040669;28;20092;-66
2022/01/29 08:58:12;;;;;;;42.30;6.15;;;;;;;;;;5041797;28;20326;-66
2022/01/29 09:00:40;;;;;;;40.35;4.03;;;;;;;;;;5040806;28;20141;-66
2022/01/29 09:03:07;;;;;;;39.15;4.70;;;;;;;;;;5042114;28;20204;-66
2022/01/29 09:05:34;;;;;;;42.60;5.30;;;;;;;;;;5043030;28;20052;-66
2022/01/29 09:08:02;;;;;;;27.08;4.32;;;;;;;;;;5039806;28;20072;-67
2022/01/29 09:10:30;;;;;;;;;;;;;;;;;;5041700;28;20046;-67
2022/01/29 09:12:56;;;;;;;18.30;3.13;;;;;;;;;;5039854;28;19975;-66
2022/01/29 09:15:23;;;;;;;25.00;3.65;;;;;;;;;;5040408;28;20049;-67
2022/01/29 09:17:50;;;;;;;26.27;3.90;;;;;;;;;;5040174;28;20048;-67
2022/01/29 09:20:16;;;;;;;21.27;2.97;;;;;;;;;;5041632;28;20128;-67
2022/01/29 09:22:43;;;;;;;19.38;3.58;;;;;;;;;;5041540;28;20052;-67
2022/01/29 09:25:09;;;;;;;12.57;2.25;;;;;;;;;;5040407;28;20140;-67
2022/01/29 09:27:35;;;;;;;25.60;3.13;;;;;;;;;;5041591;28;20053;-67
2022/01/29 09:30:03;;;;;;;26.25;3.70;;;;;;;;;;5040909;28;20136;-67
2022/01/29 09:32:30;;;;;;;18.35;3.15;;;;;;;;;;5043698;28;20069;-66
2022/01/29 09:34:57;;;;;;;15.77;2.83;;;;;;;;;;5041665;28;20053;-67
2022/01/29 09:37:30;;;;;;;19.90;3.10;;;;;;;;;;5042995;28;20045;-67
2022/01/29 09:39:57;;;;;;;20.52;2.85;;;;;;;;;;5034289;28;20144;-66
2022/01/29 09:42:24;;;;;;;24.70;3.47;;;;;;;;;;5031944;28;20087;-67
2022/01/29 09:44:52;;;;;;;22.48;3.25;;;;;;;;;;5034621;28;20069;-67
2022/01/29 09:47:23;;;;;;;17.27;2.67;;;;;;;;;;5022035;28;20099;-66
2022/01/29 09:49:50;;;;;;;22.35;3.03;;;;;;;;;;5018616;28;20052;-66
2022/01/29 09:52:16;;;;;;;22.83;3.33;;;;;;;;;;5023434;28;20137;-66
2022/01/29 09:54:45;;;;;;;32.88;3.40;;;;;;;;;;5007979;28;20140;-66
2022/01/29 09:57:12;;;;;;;17.23;3.50;;;;;;;;;;5020896;28;20729;-66
2022/01/29 09:59:41;;;;;;;21.05;3.28;;;;;;;;;;5019661;28;20581;-66
2022/01/29 10:02:15;;;;;;;21.77;3.03;;;;;;;;;;5026969;28;20133;-66
2022/01/29 10:04:46;;;;;;;20.95;3.30;;;;;;;;;;5010834;28;20133;-66
2022/01/29 10:07:14;;;;;;;16.83;2.63;;;;;;;;;;5023143;28;20073;-66
2022/01/29 10:09:40;;;;;;;14.98;2.75;;;;;;;;;;5023353;28;20137;-66
2022/01/29 10:12:23;;;;;;;23.88;3.58;;;;;;;;;;5021572;28;20420;-66
2022/01/29 10:15:08;;;;;;;13.38;2.75;;;;;;;;;;5024645;28;20100;-67
2022/01/29 10:17:48;;;;;;;27.40;4.60;;;;;;;;;;5023926;28;20129;-66
2022/01/29 10:20:20;;;;;;;26.35;3.03;;;;;;;;;;5024244;28;20085;-66
2022/01/29 10:22:50;;;;;;;16.45;3.20;;;;;;;;;;5023883;28;20132;-66
2022/01/29 10:25:28;;;;;;;24.10;3.35;;;;;;;;;;5024823;28;20088;-66
2022/01/29 10:28:07;;;;;;;24.17;3.03;;;;;;;;;;5024501;28;20511;-67
2022/01/29 10:30:38;;;;;;;30.25;4.40;;;;;;;;;;5023076;28;20129;-66
2022/01/29 10:33:29;;;;;;;26.05;3.45;;;;;;;;;;5026398;28;20276;-66
2022/01/29 10:35:57;;;;;;;23.92;3.30;;;;;;;;;;5025305;28;20136;-67
2022/01/29 10:38:29;;;;;;;40.33;4.93;;;;;;;;;;5025022;28;20524;-66
2022/01/29 10:41:14;;;;;;;41.28;4.78;;;;;;;;;;5023377;28;20783;-66
2022/01/29 10:44:02;;;;;;;43.20;5.20;;;;;;;;;;5023847;28;20050;-67
2022/01/29 10:46:34;;;;;;;26.58;4.20;;;;;;;;;;5022976;28;20506;-66
2022/01/29 10:49:01;;;;;;;31.73;4.57;;;;;;;;;;5021635;28;20142;-66
2022/01/29 10:51:27;;;;;;;49.72;5.82;;;;;;;;;;5018987;28;20512;-67
2022/01/29 10:53:54;;;;;;;46.05;5.93;;;;;;;;;;5018295;28;20792;-68
2022/01/29 10:56:21;;;;;;;38.00;4.47;;;;;;;;;;5016529;28;20054;-66
2022/01/29 10:58:50;;;;;;;32.20;5.15;;;;;;;;;;5022457;28;20064;-66
2022/01/29 11:01:24;;;;;;;37.70;5.05;;;;;;;;;;5019380;28;20155;-66
2022/01/29 11:03:57;;;;;;;39.45;5.05;;;;;;;;;;5015876;28;20045;-67
2022/01/29 11:06:32;;;;;;;49.03;6.13;;;;;;;;;;5017093;28;20049;-67
2022/01/29 11:08:59;;;;;;;36.58;5.63;;;;;;;;;;5001085;28;20493;-66
2022/01/29 11:11:25;;;;;;;52.17;7.22;;;;;;;;;;5014206;28;20162;-66
2022/01/29 11:14:10;;;;;;;56.22;6.07;;;;;;;;;;5015096;28;20042;-67
2022/01/29 11:16:39;;;;;;;42.40;5.45;;;;;;;;;;5015085;28;20073;-66
2022/01/29 11:19:06;;;;;;;61.63;7.47;;;;;;;;;;5015786;28;20149;-67
2022/01/29 11:21:35;;;;;;;60.53;7.38;;;;;;;;;;5013797;28;20064;-67
2022/01/29 11:24:09;;;;;;;58.20;7.10;;;;;;;;;;5014132;28;20055;-67
2022/01/29 11:26:36;;;;;;;48.47;6.03;;;;;;;;;;5015793;28;20100;-67
2022/01/29 11:29:22;;;;;;;40.67;4.78;;;;;;;;;;5014083;28;20144;-67
2022/01/29 11:31:49;;;;;;;33.90;5.72;;;;;;;;;;5013957;28;20068;-68
2022/01/29 11:34:15;;;;;;;47.37;5.13;;;;;;;;;;5022012;28;20080;-67
2022/01/29 11:36:45;;;;;;;28.33;5.15;;;;;;;;;;5014551;28;20061;-67
2022/01/29 11:39:22;;;;;;;32.47;4.68;;;;;;;;;;5015082;28;20068;-67
2022/01/29 11:42:07;;;;;;;28.70;4.43;;;;;;;;;;5013917;28;20501;-67
2022/01/29 11:44:34;;;;;;;25.42;3.83;;;;;;;;;;5013591;28;20041;-67
2022/01/29 11:47:31;;;;;;;25.10;3.45;;;;;;;;;;5018098;28;20080;-67
2022/01/29 11:50:16;;;;;;;18.52;3.20;;;;;;;;;;5000631;28;20073;-67
2022/01/29 11:52:59;;;;;;;20.08;3.20;;;;;;;;;;5013764;28;20049;-67
2022/01/29 11:55:52;;;;;;;17.00;3.00;;;;;;;;;;5014804;28;20493;-67
2022/01/29 11:58:27;;;;;;;20.42;3.15;;;;;;;;;;5010374;28;20045;-67
2022/01/29 12:01:00;;;;;;;19.13;3.20;;;;;;;;;;5013489;28;20061;-67
2022/01/29 12:03:33;;;;;;;23.55;3.25;;;;;;;;;;5014072;28;20641;-67
2022/01/29 12:06:28;;;;;;;19.15;3.03;;;;;;;;;;5011791;28;20433;-67
2022/01/29 12:09:10;;;;;;;16.10;2.88;;;;;;;;;;4963771;28;20140;-67
2022/01/29 12:11:39;;;;;;;21.25;2.75;;;;;;;;;;5016422;28;20132;-67
2022/01/29 12:14:14;;;;;;;22.50;3.10;;;;;;;;;;5021549;28;20048;-67
2022/01/29 12:16:57;;;;;;;23.15;2.97;;;;;;;;;;5022901;28;20136;-67
2022/01/29 12:19:45;;;;;;;34.03;4.97;;;;;;;;;;5020015;28;20050;-67
2022/01/29 12:22:11;;;;;;;26.02;4.57;;;;;;;;;;5021669;28;20060;-67
2022/01/29 12:24:39;;;;;;;26.55;4.43;;;;;;;;;;5022477;28;20075;-67
2022/01/29 12:27:06;;;;;;;33.63;4.68;;;;;;;;;;5021641;28;20045;-67
2022/01/29 12:29:34;;;;;;;33.42;4.30;;;;;;;;;;5022305;28;20120;-67
2022/01/29 12:32:01;;;;;;;20.38;3.40;;;;;;;;;;5026261;28;20135;-67
2022/01/29 12:34:28;;;;;;;24.98;4.13;;;;;;;;;;5020965;28;20623;-67
2022/01/29 12:37:09;;;;;;;24.80;4.32;;;;;;;;;;5023167;28;20469;-67
2022/01/29 12:39:36;;;;;;;24.77;4.47;;;;;;;;;;5022242;28;20144;-67
2022/01/29 12:42:55;;;;;;;21.67;3.60;;;;;;;;;;5025327;28;20045;-67
2022/01/29 12:44:52;;;;;;;16.25;3.15;;;;;;;;;;5012774;28;20059;-67
2022/01/29 12:47:26;;;;;;;14.13;2.73;;;;;;;;;;5021913;28;20148;-67
2022/01/29 12:49:53;;;;;;;12.45;2.55;;;;;;;;;;5021689;28;20088;-67
2022/01/29 12:52:19;;;;;;;11.98;2.70;;;;;;;;;;5019441;28;20049;-67
2022/01/29 12:54:58;;;;;;;17.55;2.80;;;;;;;;;;5021688;28;20166;-67
2022/01/29 12:57:25;;;;;;;8.82;2.80;;;;;;;;;;5018425;28;20490;-67
2022/01/29 12:59:51;;;;;;;8.65;2.13;;;;;;;;;;5019131;28;20149;-67
2022/01/29 13:02:36;;;;;;;9.00;2.25;;;;;;;;;;5019696;28;20081;-67
2022/01/29 13:05:04;;;;;;;7.93;1.90;;;;;;;;;;5020163;28;20060;-67
2022/01/29 13:07:34;;;;;;;11.85;1.95;;;;;;;;;;5020074;28;20112;-67
2022/01/29 13:10:00;;;;;;;8.38;1.60;;;;;;;;;;5021964;28;20486;-67
2022/01/29 13:12:27;;;;;;;2.88;1.40;;;;;;;;;;5019251;28;20475;-67
2022/01/29 13:14:53;;;;;;;10.48;1.80;;;;;;;;;;5021141;28;20137;-67
2022/01/29 13:17:21;;;;;;;7.55;1.58;;;;;;;;;;5020894;28;20088;-67
2022/01/29 13:19:47;;;;;;;5.57;1.63;;;;;;;;;;5018597;28;20628;-67
2022/01/29 13:22:14;;;;;;;4.03;1.27;;;;;;;;;;5021188;28;20135;-67
2022/01/29 13:24:48;;;;;;;12.63;1.58;;;;;;;;;;5019526;28;20157;-67
2022/01/29 13:27:34;;;;;;;9.68;1.17;;;;;;;;;;5024143;28;20048;-67
2022/01/29 13:30:10;;;;;;;4.85;1.42;;;;;;;;;;5020992;28;20042;-67
2022/01/29 13:32:38;;;;;;;5.70;0.90;;;;;;;;;;5021122;28;20046;-67
2022/01/29 13:35:15;;;;;;;6.13;1.23;;;;;;;;;;5019019;28;20056;-67
2022/01/29 13:37:41;;;;;;;2.35;0.68;;;;;;;;;;5026283;28;20132;-67
2022/01/29 13:40:08;;;;;;;7.20;1.20;;;;;;;;;;5026839;28;20048;-67
2022/01/29 13:42:51;;;;;;;6.13;1.40;;;;;;;;;;5019532;28;20047;-67
2022/01/29 13:45:20;;;;;;;3.40;0.80;;;;;;;;;;5027975;28;20042;-67
2022/01/29 13:47:58;;;;;;;5.32;0.80;;;;;;;;;;5024555;28;20153;-67
2022/01/29 13:50:27;;;;;;;4.97;1.15;;;;;;;;;;5029799;28;20129;-67
2022/01/29 13:52:57;;;;;;;4.78;1.15;;;;;;;;;;5028079;28;20049;-67
2022/01/29 13:55:24;;;;;;;2.85;0.77;;;;;;;;;;5022775;28;20137;-67
2022/01/29 13:57:57;;;;;;;1.63;0.73;;;;;;;;;;5026259;28;20140;-67
2022/01/29 14:00:24;;;;;;;3.55;1.27;;;;;;;;;;5024459;28;20050;-67
2022/01/29 14:02:52;;;;;;;4.13;1.08;;;;;;;;;;5024471;28;20049;-67
2022/01/29 14:05:22;;;;;;;2.72;1.02;;;;;;;;;;5025695;28;20051;-67
2022/01/29 14:07:48;;;;;;;2.72;1.00;;;;;;;;;;5027981;28;20473;-67
2022/01/29 14:10:37;;;;;;;5.82;1.63;;;;;;;;;;5022379;28;20042;-67
2022/01/29 14:13:11;;;;;;;10.27;1.85;;;;;;;;;;5024173;28;20132;-67
2022/01/29 14:15:37;;;;;;;9.55;1.63;;;;;;;;;;5023398;28;20419;-67
2022/01/29 14:18:06;;;;;;;5.43;1.50;;;;;;;;;;5025024;28;20149;-67
2022/01/29 14:20:33;;;;;;;8.13;1.30;;;;;;;;;;5020719;28;20056;-67
2022/01/29 14:22:59;;;;;;;12.05;1.80;;;;;;;;;;5019219;28;20493;-67
2022/01/29 14:25:25;;;;;;;12.52;2.00;;;;;;;;;;5025019;28;20123;-67
2022/01/29 14:27:55;;;;;;;14.10;2.28;;;;;;;;;;5023986;28;20561;-67
2022/01/29 14:30:21;;;;;;;9.20;2.08;;;;;;;;;;5023739;28;20582;-67
2022/01/29 14:32:47;;;;;;;11.38;2.45;;;;;;;;;;5021868;28;20049;-67
2022/01/29 14:35:15;;;;;;;7.40;2.13;;;;;;;;;;5022628;28;20092;-67
2022/01/29 14:37:41;;;;;;;23.92;2.72;;;;;;;;;;5023972;28;20481;-67
2022/01/29 14:40:09;;;;;;;22.65;3.65;;;;;;;;;;5026312;28;20103;-67
2022/01/29 14:42:36;;;;;;;;;;;;;;;;;;5023508;28;20060;-67
2022/01/29 14:45:03;;;;;;;36.85;5.93;;;;;;;;;;5022838;28;20009;-67
2022/01/29 14:47:30;;;;;;;43.92;5.95;;;;;;;;;;5020090;28;20451;-67
2022/01/29 14:49:57;;;;;;;63.80;6.32;;;;;;;;;;5023322;28;20053;-67
2022/01/29 14:52:24;;;;;;;;;;;;;;;;;;5023806;28;20060;-67
2022/01/29 14:54:51;;;;;;;54.10;8.07;;;;;;;;;;5025106;28;19925;-67
2022/01/29 14:57:17;;;;;;;45.73;6.93;;;;;;;;;;5025140;28;20156;-67
2022/01/29 14:59:44;;;;;;;64.07;8.52;;;;;;;;;;5023463;28;20132;-66
2022/01/29 15:02:10;;;;;;;57.92;8.23;;;;;;;;;;5023845;28;20053;-66
2022/01/29 15:04:38;;;;;;;;;;;;;;;;;;5025554;28;20045;-67
2022/01/29 15:07:04;;;;;;;56.83;7.97;;;;;;;;;;5025285;28;19925;-68